Time;durP1;ratioP1;P1;durP2;ratioP2;P2;SDS_P1;SDS_P2;PMS_P1;PMS_P2;Temp;Humidity;BMP_temperature;BMP_pressure;BME280_temperature;BME280_humidity;BME280_pressure;Samples;Min_cycle;Max_cycle;Signal;HPM_P1;HPM_P2
2022/11/04 00:01:13;;;;;;;6.28;2.60;;;10.00;99.90;;;9.02;100.00;96410.47;5051448;28;20405;-71
2022/11/04 00:03:41;;;;;;;7.60;3.33;;;10.00;99.90;;;9.03;100.00;96421.84;5050728;28;20774;-70
2022/11/04 00:06:07;;;;;;;8.55;3.28;;;10.00;99.90;;;8.98;100.00;96420.00;5051195;28;20410;-70
2022/11/04 00:08:33;;;;;;;7.78;3.13;;;10.00;99.90;;;8.93;100.00;96412.09;5051399;28;20441;-71
2022/11/04 00:13:45;;;;;;;5.97;2.90;;;9.90;99.90;;;8.91;100.00;96414.97;5049845;28;20901;-70
2022/11/04 00:18:58;;;;;;;8.52;3.05;;;9.90;99.90;;;8.90;100.00;96418.69;5051278;28;20415;-70
2022/11/04 00:29:40;;;;;;;9.00;3.30;;;9.90;99.90;;;8.95;100.00;96423.16;5051063;28;20430;-69
2022/11/04 00:34:52;;;;;;;6.78;2.95;;;10.00;99.90;;;8.99;100.00;96423.44;5049925;28;20405;-70
2022/11/04 00:37:18;;;;;;;9.95;3.30;;;9.90;99.90;;;9.10;100.00;96425.00;5050802;28;20420;-70
2022/11/04 00:39:44;;;;;;;6.80;3.20;;;10.00;99.90;;;9.10;100.00;96419.72;5050802;28;20405;-69
2022/11/04 00:42:10;;;;;;;7.05;2.65;;;10.10;99.90;;;9.06;100.00;96418.69;5049358;28;20503;-70
2022/11/04 00:44:35;;;;;;;6.68;3.10;;;10.00;99.90;;;9.04;100.00;96420.78;5049822;28;20933;-69
2022/11/04 00:47:01;;;;;;;10.27;3.50;;;10.00;99.90;;;9.02;100.00;96420.28;5050609;28;20802;-70
2022/11/04 00:49:27;;;;;;;9.27;3.10;;;10.00;99.90;;;9.03;100.00;96419.19;5050352;28;20405;-70
2022/11/04 00:51:54;;;;;;;6.97;2.90;;;10.00;99.90;;;9.01;100.00;96430.03;5050662;28;20410;-70
2022/11/04 00:54:20;;;;;;;5.70;2.83;;;10.00;99.90;;;9.00;100.00;96435.56;5049797;28;20414;-69
2022/11/04 00:56:49;;;;;;;6.50;2.80;;;10.00;99.90;;;9.00;100.00;96433.72;5050281;28;20918;-69
2022/11/04 00:59:15;;;;;;;7.55;3.08;;;10.00;99.90;;;8.99;100.00;96426.06;5050382;28;20880;-69
2022/11/04 01:01:41;;;;;;;7.03;3.03;;;10.00;99.90;;;9.01;100.00;96429.25;5050526;28;20412;-69
2022/11/04 01:04:08;;;;;;;6.03;3.20;;;10.00;99.90;;;9.07;100.00;96428.19;5049618;28;20853;-69
2022/11/04 01:06:34;;;;;;;7.05;2.88;;;10.10;99.90;;;9.04;100.00;96433.97;5050227;28;20496;-70
2022/11/04 01:09:05;;;;;;;7.37;3.20;;;10.00;99.90;;;9.03;100.00;96430.53;5050153;28;20484;-70
2022/11/04 01:11:30;;;;;;;7.45;3.22;;;10.00;99.90;;;9.07;100.00;96436.09;5050185;28;20444;-70
2022/11/04 01:13:57;;;;;;;7.68;3.20;;;10.00;99.90;;;9.06;100.00;96437.16;5049448;28;20429;-70
2022/11/04 01:16:24;;;;;;;7.18;3.00;;;10.00;99.90;;;9.06;100.00;96445.88;5050016;28;21005;-70
2022/11/04 01:18:50;;;;;;;6.47;2.72;;;10.00;99.90;;;9.03;100.00;96449.03;5049868;28;20413;-69
2022/11/04 01:21:17;;;;;;;5.05;2.63;;;10.00;99.90;;;9.02;100.00;96447.44;5050067;28;20405;-69
2022/11/04 01:23:44;;;;;;;6.73;3.10;;;10.00;99.90;;;9.04;100.00;96466.44;5049243;28;20760;-70
2022/11/04 01:26:14;;;;;;;7.47;2.83;;;10.00;99.90;;;9.03;100.00;96469.34;5049047;28;20500;-70
2022/11/04 01:28:40;;;;;;;6.47;2.60;;;10.00;99.90;;;9.05;100.00;96460.13;5050020;28;20433;-70
2022/11/04 01:31:07;;;;;;;8.37;2.80;;;10.00;99.90;;;9.09;100.00;96447.19;5050116;28;20437;-70
2022/11/04 01:33:33;;;;;;;9.60;3.10;;;10.00;99.90;;;9.06;100.00;96443.22;5048944;28;20451;-70
2022/11/04 01:35:59;;;;;;;7.23;2.90;;;10.00;99.90;;;9.01;100.00;96455.63;5049816;28;20408;-70
2022/11/04 01:38:25;;;;;;;6.53;3.15;;;10.00;99.90;;;8.92;100.00;96458.00;5049879;28;20409;-72
2022/11/04 01:40:51;;;;;;;4.50;2.60;;;9.90;99.90;;;8.90;100.00;96457.47;5049864;28;20412;-70
2022/11/04 01:43:21;;;;;;;9.10;3.00;;;9.90;99.90;;;8.87;100.00;96466.69;5049072;28;20406;-70
2022/11/04 01:45:53;;;;;;;8.65;2.85;;;9.90;99.90;;;8.91;100.00;96451.13;5049827;28;20400;-70
2022/11/04 01:48:23;;;;;;;6.32;2.90;;;9.90;99.90;;;8.86;100.00;96454.56;5049790;28;20400;-70
2022/11/04 01:50:52;;;;;;;6.95;2.70;;;9.90;99.90;;;8.85;100.00;96458.25;5075755;22;20453;-68
2022/11/04 01:53:25;;;;;;;7.38;3.05;;;9.90;99.90;;;8.80;100.00;96463.50;5069047;28;20769;-68
2022/11/04 01:55:57;;;;;;;6.50;2.78;;;9.80;99.90;;;8.79;100.00;96454.03;5069699;28;20399;-68
2022/11/04 01:58:33;;;;;;;8.70;3.17;;;9.80;99.90;;;8.77;100.00;96445.59;5069654;28;20546;-68
2022/11/04 02:01:00;;;;;;;6.00;2.85;;;9.80;99.90;;;8.74;100.00;96451.38;5053502;28;20417;-68
2022/11/04 02:03:33;;;;;;;8.98;2.97;;;9.80;99.90;;;8.72;100.00;96455.34;5048743;28;20405;-68
2022/11/04 02:05:59;;;;;;;7.35;3.25;;;9.70;99.90;;;8.69;100.00;96448.75;5049666;28;20497;-68
2022/11/04 02:08:26;;;;;;;9.07;3.20;;;9.70;99.90;;;8.67;100.00;96437.66;5049755;28;20768;-68
2022/11/04 02:10:57;;;;;;;9.07;3.38;;;9.70;99.90;;;8.67;100.00;96442.13;5049535;28;20937;-68
2022/11/04 02:13:25;;;;;;;7.47;3.20;;;9.70;99.90;;;8.66;100.00;96437.91;5048713;28;20416;-68
2022/11/04 02:15:59;;;;;;;8.52;3.20;;;9.70;99.90;;;8.66;100.00;96428.16;5049515;28;20402;-68
2022/11/04 02:18:48;;;;;;;9.53;3.70;;;9.70;99.90;;;8.65;100.00;96439.75;5049453;28;20459;-68
2022/11/04 02:21:38;;;;;;;11.23;3.40;;;9.70;99.90;;;8.57;100.00;96434.22;5049567;28;20402;-68
2022/11/04 02:24:40;;;;;;;10.85;3.47;;;9.60;99.90;;;8.54;100.00;96428.41;5048734;28;20390;-68
2022/11/04 02:27:27;;;;;;;8.75;3.20;;;9.60;99.90;;;8.52;100.00;96432.34;5049126;28;21021;-68
2022/11/04 02:30:07;;;;;;;7.18;2.70;;;9.50;99.90;;;8.57;100.00;96432.34;5049424;28;20394;-67
2022/11/04 02:33:06;;;;;;;7.68;2.90;;;9.60;99.90;;;8.56;100.00;96440.53;5031666;28;20811;-68
2022/11/04 02:35:41;;;;;;;8.88;2.78;;;9.60;99.90;;;8.56;100.00;96438.69;5042488;28;20433;-68
2022/11/04 02:38:17;;;;;;;5.80;2.80;;;9.60;99.90;;;8.52;100.00;96422.59;5052016;28;20894;-68
2022/11/04 02:40:53;;;;;;;6.22;2.70;;;9.50;99.90;;;8.49;100.00;96417.81;5053146;28;20435;-68
2022/11/04 02:43:24;;;;;;;8.23;2.80;;;9.50;99.90;;;8.49;100.00;96430.25;5052235;28;20401;-68
2022/11/04 02:45:59;;;;;;;8.35;2.90;;;9.50;99.90;;;8.43;100.00;96431.25;5053291;28;20810;-68
2022/11/04 02:48:34;;;;;;;5.10;2.40;;;9.50;99.90;;;8.42;100.00;96419.16;5053046;28;20393;-68
2022/11/04 02:51:08;;;;;;;5.03;2.30;;;9.40;99.90;;;8.46;100.00;96430.75;5052695;28;20401;-68
2022/11/04 02:53:40;;;;;;;7.03;2.83;;;9.40;99.90;;;8.41;100.00;96438.66;5052009;28;20429;-68
2022/11/04 02:56:09;;;;;;;9.30;2.60;;;9.40;99.90;;;8.36;100.00;96428.09;5052662;28;20404;-68
2022/11/04 02:58:40;;;;;;;6.18;2.70;;;9.40;99.90;;;8.36;100.00;96420.16;5052793;28;20455;-68
2022/11/04 03:01:12;;;;;;;6.68;2.60;;;9.40;99.90;;;8.32;100.00;96425.19;5052573;28;20496;-68
2022/11/04 03:03:43;;;;;;;7.85;2.60;;;9.40;99.90;;;8.28;100.00;96434.63;5051797;28;20463;-68
2022/11/04 03:06:12;;;;;;;6.47;2.60;;;9.30;99.90;;;8.29;100.00;96430.16;5052536;28;20455;-68
2022/11/04 03:08:45;;;;;;;5.88;2.63;;;9.30;99.90;;;8.28;100.00;96425.91;5052529;28;20493;-68
2022/11/04 03:11:14;;;;;;;6.85;2.80;;;9.30;99.90;;;8.26;100.00;96418.28;5052476;28;20891;-68
2022/11/04 03:13:45;;;;;;;7.53;2.95;;;9.30;99.90;;;8.26;100.00;96428.03;5051509;28;20737;-68
2022/11/04 03:16:18;;;;;;;5.80;2.70;;;9.30;99.90;;;8.23;100.00;96420.63;5052517;28;20492;-68
2022/11/04 03:18:57;;;;;;;6.03;2.65;;;9.30;99.90;;;8.24;100.00;96430.13;5052440;28;20516;-68
2022/11/04 03:21:26;;;;;;;7.45;3.25;;;9.30;99.90;;;8.18;100.00;96439.09;5052172;28;20405;-68
2022/11/04 03:23:53;;;;;;;8.15;3.08;;;9.20;99.90;;;8.13;100.00;96456.44;5051452;28;20467;-68
2022/11/04 03:26:28;;;;;;;7.40;3.00;;;9.20;99.90;;;8.10;100.00;96453.56;5052103;28;20454;-67
2022/11/04 03:29:06;;;;;;;9.43;3.17;;;9.20;99.90;;;8.07;100.00;96451.41;5052563;28;20397;-68
2022/11/04 03:31:44;;;;;;;7.03;2.70;;;9.10;99.90;;;8.02;100.00;96449.56;5052182;28;20401;-67
2022/11/04 03:34:10;;;;;;;9.95;3.05;;;9.10;99.90;;;8.01;100.00;96465.63;5051324;28;20404;-67
2022/11/04 03:36:36;;;;;;;6.35;2.97;;;9.00;99.90;;;7.96;100.00;96471.69;5051976;28;20412;-68
2022/11/04 03:39:02;;;;;;;8.23;2.90;;;9.00;99.90;;;7.93;100.00;96464.28;5051936;28;20496;-68
2022/11/04 03:41:34;;;;;;;6.32;2.60;;;9.00;99.90;;;7.94;100.00;96475.63;5051906;28;20488;-68
2022/11/04 03:44:00;;;;;;;6.20;2.72;;;9.00;99.90;;;7.93;100.00;96476.66;5051108;28;20410;-68
2022/11/04 03:46:27;;;;;;;9.45;3.05;;;9.00;99.90;;;7.92;100.00;96483.78;5051726;28;20398;-68
2022/11/04 03:48:54;;;;;;;7.40;3.05;;;9.00;99.90;;;7.88;100.00;96490.63;5051045;28;20483;-68
2022/11/04 03:51:20;;;;;;;8.68;3.10;;;8.90;99.90;;;7.85;100.00;96498.22;5051600;28;20408;-67
2022/11/04 03:53:47;;;;;;;10.00;3.10;;;8.90;99.90;;;7.82;100.00;96496.88;5050903;28;20437;-68
2022/11/04 03:56:50;;;;;;;8.65;3.25;;;8.90;99.90;;;7.81;100.00;96497.94;5051604;28;20401;-68
2022/11/04 03:59:39;;;;;;;7.97;2.72;;;8.90;99.90;;;7.77;100.00;96500.28;5051531;28;20529;-68
2022/11/04 04:02:13;;;;;;;7.93;3.17;;;8.90;99.90;;;7.77;100.00;96510.81;5051658;28;20402;-68
2022/11/04 04:04:49;;;;;;;7.25;3.05;;;8.80;99.90;;;7.73;100.00;96496.59;5050617;28;20929;-67
2022/11/04 04:07:23;;;;;;;9.20;3.20;;;8.80;99.90;;;7.73;100.00;96493.97;5051544;28;20879;-68
2022/11/04 04:09:56;;;;;;;11.30;3.78;;;8.80;99.90;;;7.74;100.00;96494.75;5051425;28;20492;-68
2022/11/04 04:12:32;;;;;;;7.45;3.00;;;8.80;99.90;;;7.65;100.00;96499.69;5051348;28;20433;-68
2022/11/04 04:15:07;;;;;;;7.45;3.40;;;8.70;99.90;;;7.60;100.00;96499.66;5050411;28;20404;-67
2022/11/04 04:17:38;;;;;;;9.45;3.08;;;8.70;99.90;;;7.58;100.00;96496.50;5051411;28;20432;-67
2022/11/04 04:20:11;;;;;;;7.35;3.20;;;8.70;99.90;;;7.57;100.00;96500.16;5051116;28;20401;-68
2022/11/04 04:22:44;;;;;;;9.38;3.45;;;8.60;99.90;;;7.58;100.00;96493.84;5050994;28;20500;-68
2022/11/04 04:27:58;;;;;;;9.05;3.47;;;8.60;99.90;;;7.60;100.00;96478.56;5051101;28;20820;-67
2022/11/04 04:30:24;;;;;;;9.07;3.75;;;8.70;99.90;;;7.63;100.00;96482.56;5050901;28;20408;-67
2022/11/04 04:32:54;;;;;;;6.60;3.63;;;8.70;99.90;;;7.62;100.00;96494.91;5050069;28;20484;-67
2022/11/04 04:35:42;;;;;;;9.40;3.80;;;8.70;99.90;;;7.60;100.00;96507.53;5050559;28;20389;-68
2022/11/04 04:46:43;;;;;;;7.57;3.63;;;8.60;99.90;;;7.48;100.00;96512.22;5050906;28;20393;-69
2022/11/04 04:49:09;;;;;;;10.60;4.10;;;8.60;99.90;;;7.48;100.00;96509.56;5050574;28;20732;-69
2022/11/04 04:51:42;;;;;;;7.82;3.30;;;8.60;99.90;;;7.45;100.00;96509.28;5050666;28;20401;-69
2022/11/04 04:54:08;;;;;;;10.93;4.00;;;8.60;99.90;;;7.44;100.00;96500.59;5049797;28;20433;-69
2022/11/04 04:56:34;;;;;;;16.50;4.30;;;8.50;99.90;;;7.46;100.00;96479.28;5050322;28;20897;-69
2022/11/04 04:59:00;;;;;;;11.13;4.45;;;8.60;99.90;;;7.48;100.00;96461.38;5050486;28;20402;-69
2022/11/04 05:01:25;;;;;;;11.00;4.30;;;8.60;99.90;;;7.43;100.00;96461.38;5050156;28;20471;-69
2022/11/04 05:03:51;;;;;;;9.05;4.03;;;8.50;99.90;;;7.38;100.00;96455.00;5049600;28;20406;-69
2022/11/04 05:06:17;;;;;;;8.77;3.97;;;8.50;99.90;;;7.37;100.00;96444.72;5050274;28;20397;-69
2022/11/04 05:08:44;;;;;;;8.77;3.92;;;8.50;99.90;;;7.47;100.00;96423.72;5050217;28;20426;-69
2022/11/04 05:11:11;;;;;;;9.85;4.05;;;8.50;99.90;;;7.45;100.00;96417.13;5050259;28;20397;-69
2022/11/04 05:13:36;;;;;;;12.32;4.22;;;8.50;99.90;;;7.44;100.00;96415.56;5049302;28;20406;-69
2022/11/04 05:16:05;;;;;;;11.35;4.00;;;8.60;99.90;;;7.34;100.00;96422.34;5050190;28;20428;-68
2022/11/04 05:18:31;;;;;;;8.05;3.80;;;8.40;99.90;;;7.30;100.00;96421.25;5050001;28;20496;-68
2022/11/04 05:20:57;;;;;;;13.90;4.82;;;8.40;99.90;;;7.32;100.00;96416.53;5050026;28;20500;-68
2022/11/04 05:23:23;;;;;;;13.38;4.68;;;8.40;99.90;;;7.29;100.00;96411.00;5049345;28;20404;-68
2022/11/04 05:25:50;;;;;;;11.23;4.13;;;8.40;99.90;;;7.23;100.00;96415.41;5050084;28;20410;-68
2022/11/04 05:28:16;;;;;;;13.30;4.75;;;8.40;99.90;;;7.27;100.00;96428.88;5049958;28;20459;-68
2022/11/04 05:30:43;;;;;;;9.82;4.57;;;8.30;99.90;;;7.16;100.00;96440.34;5049839;28;20871;-68
2022/11/04 05:33:09;;;;;;;7.27;3.50;;;8.30;99.90;;;7.13;100.00;96439.03;5049063;28;20435;-69
2022/11/04 05:35:34;;;;;;;9.23;3.80;;;8.20;99.90;;;7.18;100.00;96438.28;5049771;28;20763;-68
2022/11/04 05:38:01;;;;;;;12.32;5.05;;;8.30;99.90;;;7.25;100.00;96444.91;5049809;28;20518;-68
2022/11/04 05:40:26;;;;;;;13.20;4.47;;;8.30;99.90;;;7.20;100.00;96449.34;5049517;28;20413;-69
2022/11/04 05:42:57;;;;;;;8.27;4.22;;;8.30;99.90;;;7.15;100.00;96455.34;5048937;28;20405;-68
2022/11/04 05:45:23;;;;;;;10.50;4.53;;;8.30;99.90;;;7.19;100.00;96468.81;5049578;28;20397;-69
2022/11/04 05:47:57;;;;;;;10.80;5.00;;;8.30;99.90;;;7.15;100.00;96459.81;5049806;28;20413;-69
2022/11/04 05:50:23;;;;;;;15.57;4.95;;;8.20;99.90;;;7.16;100.00;96467.47;5049752;28;20405;-68
2022/11/04 05:52:49;;;;;;;14.18;5.07;;;8.30;99.90;;;7.16;100.00;96477.19;5048841;28;20412;-69
2022/11/04 05:55:15;;;;;;;11.63;4.13;;;8.20;99.90;;;7.06;100.00;96466.63;5049735;28;20489;-69
2022/11/04 05:57:41;;;;;;;15.52;5.30;;;8.20;99.90;;;7.07;100.00;96468.19;5031745;28;20421;-68
2022/11/04 06:00:10;;;;;;;8.27;4.57;;;8.10;99.90;;;7.00;100.00;96449.97;5049685;28;20409;-68
2022/11/04 06:02:36;;;;;;;12.40;4.55;;;8.10;99.90;;;7.03;100.00;96441.59;5049381;28;20401;-69
2022/11/04 06:05:03;;;;;;;15.57;5.40;;;8.10;99.90;;;7.05;100.00;96441.34;5048977;28;20513;-68
2022/11/04 06:07:29;;;;;;;17.08;4.95;;;8.20;99.90;;;7.05;100.00;96438.72;5049717;28;20402;-68
2022/11/04 06:09:55;;;;;;;13.05;4.70;;;8.20;99.90;;;7.00;100.00;96442.06;5049448;28;20474;-69
2022/11/04 06:12:21;;;;;;;9.88;4.68;;;8.10;99.90;;;7.01;100.00;96435.78;5050615;28;20401;-68
2022/11/04 06:14:46;;;;;;;16.58;5.10;;;8.10;99.90;;;7.03;100.00;96438.97;5052435;28;20397;-69
2022/11/04 06:17:16;;;;;;;15.57;4.77;;;8.10;99.90;;;7.00;100.00;96442.06;5053145;28;20421;-68
2022/11/04 06:19:42;;;;;;;11.85;4.40;;;8.10;99.90;;;6.96;100.00;96452.31;5053365;28;20902;-68
2022/11/04 06:22:10;;;;;;;8.38;4.25;;;8.10;99.90;;;6.96;100.00;96457.59;5053438;28;20401;-69
2022/11/04 06:24:36;;;;;;;14.50;5.28;;;8.10;99.90;;;7.01;100.00;96459.44;5052551;28;20398;-68
2022/11/04 06:27:02;;;;;;;10.05;4.25;;;8.10;99.90;;;6.95;100.00;96466.53;5053235;28;20428;-68
2022/11/04 06:29:27;;;;;;;11.20;4.60;;;8.10;99.90;;;6.90;100.00;96477.00;5053252;28;20459;-68
2022/11/04 06:31:53;;;;;;;9.75;4.50;;;8.00;99.90;;;6.91;100.00;96491.75;5053280;28;20416;-70
2022/11/04 06:34:21;;;;;;;10.70;4.40;;;8.00;99.90;;;6.90;100.00;96490.16;5052401;28;20906;-69
2022/11/04 06:36:48;;;;;;;14.98;4.88;;;8.00;99.90;;;6.89;100.00;96488.56;5053012;28;20412;-69
2022/11/04 06:39:14;;;;;;;9.98;4.85;;;8.00;99.90;;;6.85;100.00;96484.03;5053097;28;20397;-69
2022/11/04 06:41:40;;;;;;;13.83;5.70;;;8.00;99.90;;;6.89;100.00;96495.66;5053153;28;20409;-69
2022/11/04 06:44:06;;;;;;;12.18;5.05;;;8.00;99.90;;;6.87;100.00;96495.13;5049694;28;20417;-69
2022/11/04 06:46:36;;;;;;;14.27;5.22;;;8.00;99.90;;;6.91;100.00;96491.75;5070915;28;20441;-69
2022/11/04 06:49:03;;;;;;;12.75;5.35;;;8.00;99.90;;;6.91;100.00;96502.28;5072942;28;20395;-68
2022/11/04 06:51:31;;;;;;;10.77;4.88;;;8.00;99.90;;;6.87;100.00;96495.91;5072810;28;20564;-69
2022/11/04 06:53:57;;;;;;;12.23;5.18;;;8.00;99.90;;;6.92;100.00;96501.19;5053507;28;20401;-69
2022/11/04 06:56:23;;;;;;;10.10;4.93;;;8.00;99.90;;;6.91;100.00;96502.28;5052591;28;20402;-69
2022/11/04 06:58:50;;;;;;;14.80;5.30;;;8.00;99.90;;;6.90;100.00;96503.31;5052592;28;20979;-69
2022/11/04 07:01:17;;;;;;;8.20;4.57;;;8.10;99.90;;;6.96;100.00;96499.69;5052344;28;20806;-68
2022/11/04 07:03:47;;;;;;;10.93;5.00;;;8.00;99.90;;;6.99;100.00;96493.91;5049074;28;20976;-69
2022/11/04 07:06:13;;;;;;;17.38;5.80;;;8.10;99.90;;;7.04;100.00;96495.81;5052478;28;20385;-69
2022/11/04 07:08:40;;;;;;;14.02;5.55;;;8.10;99.90;;;7.04;100.00;96501.06;5034706;28;20409;-69
2022/11/04 07:11:06;;;;;;;16.85;5.75;;;8.10;99.90;;;7.04;100.00;96500.28;5052415;28;20879;-69
2022/11/04 07:13:32;;;;;;;15.00;5.65;;;8.10;99.90;;;7.00;100.00;96489.44;5049049;28;20417;-70
2022/11/04 07:15:58;;;;;;;9.15;4.80;;;8.10;99.90;;;6.99;100.00;96495.78;5052363;28;20399;-69
2022/11/04 07:18:24;;;;;;;12.45;4.68;;;8.10;99.90;;;7.00;100.00;96486.81;5072295;28;20426;-69
2022/11/04 07:20:50;;;;;;;15.13;5.78;;;8.10;99.90;;;7.02;100.00;96473.41;5068614;28;20930;-70
2022/11/04 07:23:16;;;;;;;13.60;5.28;;;8.10;99.90;;;7.04;100.00;96466.06;5049828;28;20906;-69
2022/11/04 07:25:44;;;;;;;13.00;5.28;;;8.10;99.90;;;7.03;100.00;96467.91;5051154;28;20409;-68
2022/11/04 07:28:10;;;;;;;12.95;5.45;;;8.10;99.90;;;7.03;100.00;96467.91;5042106;28;20535;-68
2022/11/04 07:30:36;;;;;;;23.33;5.80;;;8.10;99.90;;;7.05;100.00;96467.66;5042590;28;20913;-70
2022/11/04 07:33:02;;;;;;;17.10;5.70;;;8.10;99.90;;;7.04;100.00;96471.31;5040371;28;20407;-68
2022/11/04 07:35:36;;;;;;;11.80;5.10;;;8.10;99.90;;;7.04;100.00;96466.84;5040494;28;20399;-69
2022/11/04 07:38:02;;;;;;;14.03;5.33;;;8.10;99.90;;;7.08;100.00;96462.66;5314639;22;20932;-67
2022/11/04 07:40:28;;;;;;;11.98;4.38;;;8.20;99.90;;;7.13;100.00;96460.09;5051419;28;20970;-69
2022/11/04 07:42:56;;;;;;;11.63;4.95;;;8.20;99.90;;;7.20;100.00;96465.16;5050966;28;20410;-69
2022/11/04 07:45:21;;;;;;;11.20;5.10;;;8.30;99.90;;;7.24;100.00;96468.84;5051728;28;20401;-70
2022/11/04 07:47:47;;;;;;;15.95;5.50;;;8.30;99.90;;;7.28;100.00;96462.84;5050738;28;20455;-70
2022/11/04 07:50:13;;;;;;;10.77;4.72;;;8.30;99.90;;;7.32;100.00;96468.38;5060244;22;20414;-75
2022/11/04 07:52:39;;;;;;;7.43;4.07;;;8.40;99.90;;;7.37;100.00;96463.16;5031520;28;20907;-75
2022/11/04 07:55:06;;;;;;;11.75;5.18;;;8.40;99.90;;;7.43;100.00;96458.72;5031260;28;20395;-73
2022/11/04 07:57:32;;;;;;;11.07;5.15;;;8.50;99.90;;;7.48;100.00;96461.38;5031376;28;20923;-71
2022/11/04 07:59:59;;;;;;;9.43;4.50;;;8.50;99.90;;;7.51;100.00;96451.16;5031541;28;20403;-69
2022/11/04 08:02:25;;;;;;;8.88;4.72;;;8.50;99.90;;;7.55;100.00;96444.31;5031551;28;20411;-68
2022/11/04 08:04:51;;;;;;;10.95;4.75;;;8.60;99.90;;;7.66;100.00;96442.53;5030813;28;20410;-73
2022/11/04 08:07:17;;;;;;;9.27;4.90;;;8.70;99.90;;;7.68;100.00;96440.44;5034979;28;20916;-73
2022/11/04 08:09:42;;;;;;;10.03;4.67;;;8.70;99.90;;;7.70;100.00;96436.50;5042359;28;20412;-74
2022/11/04 08:12:09;;;;;;;9.60;4.40;;;8.70;99.90;;;7.72;100.00;96442.31;5051405;28;20401;-72
2022/11/04 08:14:35;;;;;;;13.13;4.90;;;8.70;99.90;;;7.75;100.00;96433.09;5050340;28;20899;-71
2022/11/04 08:17:02;;;;;;;14.38;4.90;;;8.80;99.90;;;7.78;100.00;96432.59;5051141;28;20413;-72
2022/11/04 08:19:30;;;;;;;9.15;4.13;;;8.80;99.90;;;7.83;100.00;96440.50;5051017;28;20401;-72
2022/11/04 08:21:56;;;;;;;11.40;4.70;;;8.80;99.90;;;7.89;100.00;96436.06;5050843;28;20732;-72
2022/11/04 08:24:22;;;;;;;9.07;4.18;;;8.90;99.90;;;7.92;100.00;96432.91;5050142;28;20612;-71
2022/11/04 08:26:48;;;;;;;10.82;4.10;;;8.90;99.90;;;7.97;100.00;96430.31;5050860;28;20408;-71
2022/11/04 08:29:14;;;;;;;9.57;4.28;;;8.90;99.90;;;7.98;100.00;96443.22;5043327;28;20399;-71
2022/11/04 08:31:40;;;;;;;24.92;8.85;;;8.90;99.90;;;8.00;100.00;96440.31;5019191;28;20774;-71
2022/11/04 08:34:08;;;;;;;19.08;8.57;;;9.00;99.90;;;8.06;100.00;96441.94;5020644;28;20410;-71
2022/11/04 08:36:37;;;;;;;19.63;8.95;;;9.00;99.90;;;8.10;100.00;96443.00;5020377;28;20910;-72
2022/11/04 08:39:04;;;;;;;22.90;10.13;;;9.10;99.90;;;8.11;100.00;96445.41;5014104;28;20436;-70
2022/11/04 08:41:31;;;;;;;12.18;4.38;;;9.10;99.90;;;8.13;100.00;96453.03;5011143;28;20413;-71
2022/11/04 08:43:59;;;;;;;15.32;4.38;;;9.10;99.90;;;8.11;100.00;96453.31;5010239;28;20401;-71
2022/11/04 08:46:26;;;;;;;15.00;3.80;;;9.10;99.90;;;8.08;100.00;96453.00;5029940;28;20429;-71
2022/11/04 08:48:52;;;;;;;8.97;3.50;;;9.10;99.90;;;8.06;100.00;96455.91;5029068;28;20469;-72
2022/11/04 08:51:23;;;;;;;12.57;3.53;;;9.00;99.90;;;7.97;100.00;96461.94;5033187;28;20518;-72
2022/11/04 08:53:49;;;;;;;12.70;3.75;;;9.00;99.90;;;8.03;100.00;96453.00;5031096;28;20416;-72
2022/11/04 08:56:18;;;;;;;8.93;3.53;;;9.00;99.90;;;8.08;100.00;96459.06;5034316;28;20798;-72
2022/11/04 08:58:44;;;;;;;8.27;3.28;;;9.10;99.90;;;8.19;100.00;96465.19;5028244;28;20427;-72
2022/11/04 09:01:11;;;;;;;11.48;3.10;;;9.10;99.90;;;8.19;100.00;96459.13;5035690;28;20418;-72
2022/11/04 09:03:39;;;;;;;10.15;3.08;;;9.10;99.90;;;8.16;100.00;96461.22;5036134;28;20473;-72
2022/11/04 09:06:07;;;;;;;9.20;3.50;;;9.10;99.90;;;8.18;100.00;96462.81;5031812;28;20407;-72
2022/11/04 09:08:36;;;;;;;8.55;3.00;;;9.10;99.90;;;8.13;100.00;96467.00;5027982;28;20404;-72
2022/11/04 09:11:06;;;;;;;10.07;2.95;;;9.10;99.90;;;8.22;100.00;96469.13;5024915;28;20411;-72
2022/11/04 09:13:32;;;;;;;5.97;2.72;;;9.20;99.90;;;8.38;100.00;96476.88;5022823;28;20411;-72
2022/11/04 09:16:00;;;;;;;6.90;2.75;;;9.30;99.90;;;8.45;100.00;96480.06;5028754;28;22266;-72
2022/11/04 09:18:26;;;;;;;14.80;3.05;;;9.30;99.90;;;8.35;100.00;96481.88;5038533;28;20504;-71
2022/11/04 09:20:52;;;;;;;6.60;2.70;;;9.30;99.90;;;8.36;100.00;96489.53;5024011;28;20490;-71
2022/11/04 09:23:18;;;;;;;9.93;2.63;;;9.30;99.90;;;8.52;100.00;96493.81;5006333;28;20940;-69
2022/11/04 09:25:45;;;;;;;8.27;2.42;;;9.40;99.90;;;8.73;100.00;96492.00;5036024;28;20535;-71
2022/11/04 09:28:11;;;;;;;13.20;2.63;;;9.60;99.90;;;8.61;100.00;96488.81;5006894;28;20426;-70
2022/11/04 09:30:37;;;;;;;7.55;2.65;;;9.60;99.90;;;8.61;100.00;96490.66;5022972;28;20421;-69
2022/11/04 09:33:03;;;;;;;15.27;2.47;;;9.50;99.90;;;8.57;100.00;96485.09;5024891;28;20533;-70
2022/11/04 09:35:29;;;;;;;9.80;2.30;;;9.50;99.90;;;8.47;100.00;96488.53;5024572;28;20438;-69
2022/11/04 09:37:58;;;;;;;11.80;2.63;;;9.40;99.90;;;8.53;100.00;96486.69;5025747;28;20432;-70
2022/11/04 09:40:25;;;;;;;9.20;2.20;;;9.40;99.90;;;8.59;100.00;96483.00;5028072;28;20411;-70
2022/11/04 09:43:08;;;;;;;6.93;1.90;;;9.50;99.90;;;8.66;100.00;96483.53;5025236;28;20500;-70
2022/11/04 09:45:38;;;;;;;6.65;2.03;;;9.60;99.90;;;8.81;100.00;96477.50;5029261;28;20399;-70
2022/11/04 09:48:11;;;;;;;8.98;2.20;;;9.60;99.90;;;8.68;100.00;96484.09;5028772;28;20391;-70
2022/11/04 09:50:46;;;;;;;9.13;2.17;;;9.60;99.90;;;8.85;100.00;96489.13;5029004;28;20426;-70
2022/11/04 09:53:19;;;;;;;7.75;2.20;;;9.80;99.90;;;8.85;100.00;96484.66;5025259;28;20920;-70
2022/11/04 09:55:53;;;;;;;9.02;2.28;;;9.70;99.90;;;8.97;100.00;96476.47;5029117;28;20395;-69
2022/11/04 09:58:20;;;;;;;7.20;2.70;;;9.90;99.90;;;8.88;100.00;96473.56;5028218;28;20465;-70
2022/11/04 10:00:55;;;;;;;7.80;2.50;;;9.80;99.90;;;9.14;100.00;96463.03;5028840;28;20442;-69
2022/11/04 10:03:46;;;;;;;8.67;2.40;;;10.00;99.90;;;9.46;100.00;96463.53;5026583;28;20413;-70
2022/11/04 10:06:30;;;;;;;5.85;2.30;;;10.40;99.90;;;9.75;100.00;96465.59;5027359;28;20494;-69
2022/11/04 10:09:17;;;;;;;4.03;2.00;;;10.60;99.90;;;9.67;100.00;96461.66;5027113;28;20422;-69
2022/11/04 10:11:58;;;;;;;6.75;2.10;;;10.60;99.90;;;9.81;100.00;96461.88;5029438;28;20474;-69
2022/11/04 10:14:48;;;;;;;9.35;2.50;;;10.60;99.90;;;9.88;100.00;96457.91;5027368;28;20419;-69
2022/11/04 10:17:49;;;;;;;7.82;2.17;;;10.70;99.90;;;9.99;100.00;96458.69;5026738;28;20444;-69
2022/11/04 10:20:40;;;;;;;5.32;2.03;;;10.90;99.90;;;10.14;100.00;96453.34;5026372;28;20399;-69
2022/11/04 10:23:19;;;;;;;7.88;1.85;;;11.00;99.90;;;10.13;100.00;96450.97;5028190;28;20485;-71
2022/11/04 10:25:51;;;;;;;6.95;1.90;;;11.10;99.90;;;10.11;100.00;96459.16;5028963;28;20396;-69
2022/11/04 10:28:21;;;;;;;3.80;1.60;;;10.90;99.90;;;10.12;100.00;96452.81;5027737;28;20426;-69
2022/11/04 10:30:50;;;;;;;7.00;1.90;;;10.90;99.90;;;10.03;100.00;96455.22;5026733;28;20406;-70
2022/11/04 10:33:27;;;;;;;8.90;2.08;;;10.90;99.90;;;9.99;100.00;96456.81;5028269;28;20399;-70
2022/11/04 10:35:58;;;;;;;9.48;2.15;;;10.80;99.90;;;9.68;100.00;96447.41;5026973;28;20438;-70
2022/11/04 10:38:35;;;;;;;4.70;1.60;;;10.60;99.90;;;9.68;100.00;96447.41;5023976;28;20430;-70
2022/11/04 10:41:11;;;;;;;5.40;1.60;;;10.50;99.90;;;9.71;100.00;96449.47;5028578;28;20423;-70
2022/11/04 10:43:39;;;;;;;5.00;1.60;;;10.50;99.90;;;9.91;100.00;96446.00;5015154;28;20414;-71
2022/11/04 10:46:51;;;;;;;6.00;1.80;;;10.70;99.90;;;10.01;100.00;96446.75;5033125;28;20767;-71
2022/11/04 10:49:51;;;;;;;3.85;1.73;;;10.80;99.90;;;10.15;100.00;96441.66;5039416;28;20454;-71
2022/11/04 10:52:17;;;;;;;11.80;2.08;;;11.00;99.90;;;9.95;100.00;96442.56;5048335;28;20433;-70
2022/11/04 10:54:47;;;;;;;6.80;1.95;;;10.80;99.90;;;9.95;100.00;96441.75;5030567;28;20483;-71
2022/11/04 10:57:19;;;;;;;8.15;2.53;;;10.90;99.90;;;9.68;100.00;96442.09;5039422;28;20412;-70
2022/11/04 10:59:53;;;;;;;7.07;1.73;;;10.60;99.90;;;9.70;100.00;96440.75;5052480;28;20408;-71
2022/11/04 11:02:46;;;;;;;6.57;1.75;;;10.60;99.90;;;9.78;100.00;96433.34;5052846;28;20883;-71